首页
METAR-TAF:

METAR-TAF

机场 :

New Bern, 北卡罗来纳州, 美国

纬度: 35-04-03N, 经度: 077-02-50W, 海拔: 5米

当前天气观测

该预报发布于58分钟前的17:54 UTC
风速12节,风向,有时为19节阵风
温度 18°C
湿度 59%
气压 1027 hPa
能見度: 16.1公里
阴天层高于7500英尺

METAR: KEWN 231754Z 17012G19KT 10SM OVC075 18/10 A3033 RMK AO2 SLP271 60000 T01780100 10178 20044 58025

时间: 13:52 (18:52 UTC)

预报

该预报发布于1小时和32分钟前的17:20 UTC
预报有效从23日的 18点(UTC)到 24日的 18点(UTC)
风速11节,风向,有时为18节阵风
能見度: 10公里
散云层高于4000英尺
多云层高于7000英尺
从 24日的 0400点(UTC)
风速12节,风向,有时为20节阵风
能見度: 10公里
多云层高于4000英尺
从 24日的 1200点(UTC)
风速17节,风向,有时为27节阵风
能見度: 6.4公里
散云层高于1500英尺
阴天层高于3000英尺
阵雨
从 24日的 1700点(UTC)
风速15节,风向西南,有时为25节阵风
能見度: 9.7公里
阴天层高于2000英尺
阵雨

TAF: KEWN 231720Z 2318/2418 17011G18KT P6SM SCT040 BKN070 FM240400 18012G20KT P6SM BKN040 WS020/18040KT FM241200 19017G27KT 4SM SHRA SCT015 OVC030 WS020/20055KT FM241700 23015G25KT 6SM SHRA OVC020

超过4000个机场的气象观测和天气预报(METAR&TAF报告)。

可查询的气象台以黄色和红色小点在地图上表示。

将鼠标移到小点上方,可查看气象台名称。

然后点击查看天气观测和预报。

如需切换地图:点击带黑十字的绿色按钮放大地图;点击带横线的绿色按钮缩小地图;或者点击绿色箭头查看邻近地区的地图。


METAR-TAF: